createdAt,value
2019-01-23T00:00:37.567Z,0.00
2019-01-23T00:01:37.907Z,0.00
2019-01-23T00:02:37.608Z,0.00
2019-01-23T00:04:37.830Z,0.00
2019-01-23T00:05:37.725Z,0.00
2019-01-23T00:06:37.706Z,0.00
2019-01-23T00:07:37.781Z,0.00
2019-01-23T00:10:38.175Z,0.00
2019-01-23T00:11:37.969Z,0.00
2019-01-23T00:12:37.936Z,0.00
2019-01-23T00:13:37.924Z,0.00
2019-01-23T00:14:37.993Z,0.00
2019-01-23T00:15:38.026Z,0.00
2019-01-23T00:16:38.068Z,0.00
2019-01-23T00:17:38.356Z,0.00
2019-01-23T00:18:38.070Z,0.00
2019-01-23T00:19:38.098Z,0.00
2019-01-23T00:20:38.127Z,0.00
2019-01-23T00:23:38.266Z,0.00
2019-01-23T00:24:38.604Z,0.00
2019-01-23T00:25:38.282Z,0.00
2019-01-23T00:27:38.393Z,0.00
2019-01-23T00:28:42.317Z,0.00
2019-01-23T00:29:38.399Z,0.00
2019-01-23T00:30:38.462Z,0.00
2019-01-23T00:31:38.795Z,0.00
2019-01-23T00:32:38.598Z,0.00
2019-01-23T00:34:38.602Z,0.00
2019-01-23T00:35:38.593Z,0.00
2019-01-23T00:36:38.671Z,0.00
2019-01-23T00:37:38.753Z,0.00
2019-01-23T00:38:39.022Z,0.00
2019-01-23T00:39:38.753Z,0.00
2019-01-23T00:41:38.759Z,0.00
2019-01-23T00:43:38.875Z,0.00
2019-01-23T00:44:38.902Z,0.00
2019-01-23T00:45:39.192Z,0.00
2019-01-23T00:46:39.135Z,0.00
2019-01-23T00:47:39.026Z,0.00
2019-01-23T00:48:38.978Z,0.00
2019-01-23T00:49:39.053Z,0.00
2019-01-23T00:50:39.038Z,0.00
2019-01-23T00:51:39.066Z,0.00
2019-01-23T00:52:39.448Z,0.00
2019-01-23T00:53:39.220Z,0.00
2019-01-23T00:54:39.211Z,0.00
2019-01-23T00:55:39.195Z,0.00
2019-01-23T00:56:39.221Z,0.00
2019-01-23T00:57:39.296Z,0.00
2019-01-23T00:58:39.278Z,0.00
2019-01-23T00:59:39.612Z,0.00
2019-01-23T01:00:39.341Z,0.00
2019-01-23T01:01:39.422Z,0.00
2019-01-23T01:02:39.401Z,0.00
2019-01-23T01:03:39.483Z,0.00
2019-01-23T01:04:39.509Z,0.00
2019-01-23T01:05:39.548Z,0.00
2019-01-23T01:06:39.819Z,0.00
2019-01-23T01:07:39.624Z,0.00
2019-01-23T01:08:39.647Z,0.00
2019-01-23T01:09:39.687Z,0.00
2019-01-23T01:11:39.673Z,0.00
2019-01-23T01:12:39.705Z,0.00
2019-01-23T01:13:40.046Z,0.00
2019-01-23T01:14:39.783Z,0.00
2019-01-23T01:15:39.846Z,0.00
2019-01-23T01:16:39.827Z,0.00
2019-01-23T01:17:39.853Z,0.00
2019-01-23T01:18:39.892Z,0.00
2019-01-23T01:20:40.001Z,0.00
2019-01-23T01:21:40.276Z,0.00
2019-01-23T01:22:40.065Z,0.00
2019-01-23T01:23:40.064Z,0.00
2019-01-23T01:24:40.122Z,0.00
2019-01-23T01:25:40.103Z,0.00
2019-01-23T01:26:40.142Z,0.00
2019-01-23T01:27:40.218Z,0.00
2019-01-23T01:28:40.544Z,0.00
2019-01-23T01:29:40.219Z,0.00
2019-01-23T01:30:40.254Z,0.00
2019-01-23T01:32:40.366Z,0.00
2019-01-23T01:33:40.389Z,0.00
2019-01-23T01:34:40.375Z,0.00
2019-01-23T01:35:40.713Z,0.00
2019-01-23T01:36:40.487Z,0.00
2019-01-23T01:37:40.465Z,0.00
2019-01-23T01:38:40.545Z,0.00
2019-01-23T01:39:40.532Z,0.00
2019-01-23T01:40:40.556Z,0.00
2019-01-23T01:42:40.673Z,0.00
2019-01-23T01:43:40.950Z,0.00
2019-01-23T01:44:40.730Z,0.00
2019-01-23T01:45:40.719Z,0.00
2019-01-23T01:46:40.788Z,0.00
2019-01-23T01:47:40.776Z,0.00
2019-01-23T01:48:40.809Z,0.00
2019-01-23T01:49:40.880Z,0.00
2019-01-23T01:50:41.165Z,0.00
2019-01-23T01:51:40.887Z,0.00
2019-01-23T01:52:40.972Z,0.00
2019-01-23T01:53:40.977Z,0.00
2019-01-23T01:56:41.047Z,0.00
2019-01-23T01:57:41.371Z,0.00
2019-01-23T01:58:41.106Z,0.00
2019-01-23T01:59:41.139Z,0.00
2019-01-23T02:00:41.216Z,0.00
2019-01-23T02:01:41.197Z,0.00
2019-01-23T02:02:41.274Z,0.00
2019-01-23T02:03:41.312Z,0.00
2019-01-23T02:04:41.639Z,0.00
2019-01-23T02:05:41.324Z,0.00
2019-01-23T02:07:41.434Z,0.00
2019-01-23T02:08:41.460Z,0.00
2019-01-23T02:09:45.432Z,0.00
2019-01-23T02:10:41.466Z,0.00
2019-01-23T02:11:41.811Z,0.00
2019-01-23T02:12:41.593Z,0.00
2019-01-23T02:13:41.604Z,0.00
2019-01-23T02:14:41.591Z,0.00
2019-01-23T02:15:41.664Z,0.00
2019-01-23T02:16:41.697Z,0.00
2019-01-23T02:17:41.679Z,0.00
2019-01-23T02:18:42.013Z,0.00
2019-01-23T02:19:41.739Z,0.00
2019-01-23T02:20:41.827Z,0.00
2019-01-23T02:22:41.877Z,0.00
2019-01-23T02:23:41.908Z,0.00
2019-01-23T02:24:41.938Z,0.00
2019-01-23T02:25:42.219Z,0.00
2019-01-23T02:26:41.949Z,0.00
2019-01-23T02:27:41.986Z,0.00
2019-01-23T02:28:42.076Z,0.00
2019-01-23T02:29:42.095Z,0.00
2019-01-23T02:30:42.076Z,0.00
2019-01-23T02:32:42.131Z,0.00
2019-01-23T02:33:42.477Z,0.00
2019-01-23T02:34:42.194Z,0.00
2019-01-23T02:35:42.224Z,0.00
2019-01-23T02:36:42.309Z,0.00
2019-01-23T02:37:42.293Z,0.00
2019-01-23T02:38:42.386Z,0.00
2019-01-23T02:39:42.403Z,0.00
2019-01-23T02:40:42.807Z,0.00
2019-01-23T02:41:42.409Z,0.00
2019-01-23T02:42:42.437Z,0.00
2019-01-23T02:43:42.486Z,0.00
2019-01-23T02:44:42.545Z,0.00
2019-01-23T02:45:42.582Z,0.00
2019-01-23T02:46:42.567Z,0.00
2019-01-23T02:47:42.895Z,0.00
2019-01-23T02:48:42.674Z,0.00
2019-01-23T02:49:42.654Z,0.00
2019-01-23T02:50:42.739Z,0.00
2019-01-23T02:51:42.758Z,0.00
2019-01-23T02:52:42.799Z,0.00
2019-01-23T02:53:42.773Z,0.00
2019-01-23T02:54:43.097Z,0.00
2019-01-23T02:55:42.850Z,0.00
2019-01-23T02:56:42.916Z,0.00
2019-01-23T02:57:42.944Z,0.00
2019-01-23T02:58:42.925Z,0.00
2019-01-23T03:00:43.032Z,0.00
2019-01-23T03:01:43.313Z,0.00
2019-01-23T03:02:43.096Z,0.00
2019-01-23T03:03:43.080Z,0.00
2019-01-23T03:04:43.158Z,0.00
2019-01-23T03:06:43.171Z,0.00
2019-01-23T03:07:43.502Z,0.00
2019-01-23T03:08:43.272Z,0.00
2019-01-23T03:09:43.257Z,0.00
2019-01-23T03:10:43.287Z,0.00
2019-01-23T03:11:43.374Z,0.00
2019-01-23T03:12:43.354Z,0.00
2019-01-23T03:13:43.680Z,0.00
2019-01-23T03:14:43.462Z,0.00
2019-01-23T03:15:43.444Z,0.00
2019-01-23T03:16:43.512Z,0.00
2019-01-23T03:17:43.502Z,0.00
2019-01-23T03:18:43.524Z,0.00
2019-01-23T03:19:43.611Z,0.00
2019-01-23T03:20:43.641Z,0.00
2019-01-23T03:21:43.613Z,0.00
2019-01-23T03:22:43.663Z,0.00
2019-01-23T03:23:43.746Z,0.00
2019-01-23T03:24:43.765Z,0.00
2019-01-23T03:26:44.070Z,0.00
2019-01-23T03:27:43.811Z,0.00
2019-01-23T03:28:43.878Z,0.00
2019-01-23T03:29:43.860Z,0.00
2019-01-23T03:30:43.947Z,0.00
2019-01-23T03:31:44.056Z,0.00
2019-01-23T03:32:43.971Z,0.00
2019-01-23T03:33:44.301Z,0.00
2019-01-23T03:34:44.026Z,0.00
2019-01-23T03:35:44.093Z,0.00
2019-01-23T03:37:44.100Z,0.00
2019-01-23T03:38:44.135Z,0.00
2019-01-23T03:39:44.166Z,0.00
2019-01-23T03:40:44.508Z,0.00
2019-01-23T03:41:44.269Z,0.00
2019-01-23T03:42:44.300Z,0.00
2019-01-23T03:43:44.345Z,0.00
2019-01-23T03:44:44.368Z,0.00
2019-01-23T03:45:44.342Z,0.00
2019-01-23T03:46:44.376Z,0.00
2019-01-23T03:47:44.703Z,0.00
2019-01-23T03:48:44.591Z,0.00
2019-01-23T03:49:44.512Z,0.00
2019-01-23T03:50:44.503Z,0.00
2019-01-23T03:51:44.577Z,0.00
2019-01-23T03:52:44.571Z,0.00
2019-01-23T03:53:44.633Z,0.00
2019-01-23T03:54:44.913Z,0.00
2019-01-23T03:55:44.650Z,0.00
2019-01-23T03:56:44.732Z,0.00
2019-01-23T03:57:44.710Z,0.00
2019-01-23T03:58:44.797Z,0.00
2019-01-23T04:00:44.852Z,0.00
2019-01-23T04:01:45.143Z,0.00
2019-01-23T04:02:44.854Z,0.00
2019-01-23T04:03:44.950Z,0.00
2019-01-23T04:04:44.923Z,0.00
2019-01-23T04:06:45.030Z,0.00
2019-01-23T04:07:45.013Z,0.00
2019-01-23T04:08:45.436Z,0.00
2019-01-23T04:09:45.123Z,0.00
2019-01-23T04:10:45.102Z,0.00
2019-01-23T04:11:45.128Z,0.00
2019-01-23T04:12:45.166Z,0.00
2019-01-23T04:13:45.246Z,0.00
2019-01-23T04:14:45.227Z,0.00
2019-01-23T04:15:45.552Z,0.00
2019-01-23T04:16:45.340Z,0.00
2019-01-23T04:18:45.347Z,0.00
2019-01-23T04:20:45.461Z,0.00
2019-01-23T04:21:45.433Z,0.00
2019-01-23T04:22:45.803Z,0.00
2019-01-23T04:23:45.509Z,0.00
2019-01-23T04:24:45.591Z,0.00
2019-01-23T04:25:45.563Z,0.00
2019-01-23T04:26:45.593Z,0.00
2019-01-23T04:27:45.664Z,0.00
2019-01-23T04:28:45.709Z,0.00
2019-01-23T04:29:45.977Z,0.00
2019-01-23T04:30:45.706Z,0.00
2019-01-23T04:31:45.747Z,0.00
2019-01-23T04:32:45.802Z,0.00
2019-01-23T04:33:45.863Z,0.00
2019-01-23T04:34:45.845Z,0.00
2019-01-23T04:35:45.865Z,0.00
2019-01-23T04:36:46.190Z,0.00
2019-01-23T04:37:45.940Z,0.00
2019-01-23T04:38:46.000Z,0.00
2019-01-23T04:39:46.054Z,0.00
2019-01-23T04:41:37.471Z,0.00
2019-01-23T04:42:37.500Z,0.00
2019-01-23T04:43:37.781Z,0.00
2019-01-23T04:44:37.508Z,0.00
2019-01-23T04:45:37.539Z,0.00
2019-01-23T04:46:37.737Z,0.00
2019-01-23T04:47:37.600Z,0.00
2019-01-23T04:48:37.684Z,0.00
2019-01-23T04:49:38.008Z,0.00
2019-01-23T04:50:37.700Z,0.00
2019-01-23T04:51:37.778Z,0.00
2019-01-23T04:52:37.807Z,0.00
2019-01-23T04:53:37.786Z,0.00
2019-01-23T04:54:37.812Z,0.00
2019-01-23T04:56:38.226Z,0.00
2019-01-23T04:57:37.905Z,0.00
2019-01-23T04:58:37.933Z,0.00
2019-01-23T04:59:37.968Z,0.00
2019-01-23T05:01:38.031Z,0.00
2019-01-23T05:02:38.407Z,0.00
2019-01-23T05:03:38.100Z,0.00
2019-01-23T05:04:38.126Z,0.00
2019-01-23T05:05:38.220Z,0.00
2019-01-23T05:06:38.180Z,0.00
2019-01-23T05:07:38.266Z,0.00
2019-01-23T05:08:38.238Z,0.00
2019-01-23T05:09:38.627Z,0.00
2019-01-23T05:10:38.295Z,0.00
2019-01-23T05:13:38.400Z,0.00
2019-01-23T05:14:38.443Z,0.00
2019-01-23T05:15:38.499Z,0.00
2019-01-23T05:16:38.777Z,0.00
2019-01-23T05:17:38.562Z,0.00
2019-01-23T05:18:38.555Z,0.00
2019-01-23T05:19:38.574Z,0.00
2019-01-23T05:20:38.613Z,0.00
2019-01-23T05:21:38.683Z,0.00
2019-01-23T05:22:38.721Z,0.00
2019-01-23T05:23:38.994Z,0.00
2019-01-23T05:24:38.727Z,0.00
2019-01-23T05:25:38.853Z,0.00
2019-01-23T05:26:38.780Z,0.00
2019-01-23T05:27:38.869Z,0.00
2019-01-23T05:28:38.841Z,0.00
2019-01-23T05:29:38.929Z,0.00
2019-01-23T05:31:39.235Z,0.00
2019-01-23T05:32:39.010Z,0.00
2019-01-23T05:33:39.059Z,0.00
2019-01-23T05:34:39.028Z,0.00
2019-01-23T05:35:39.056Z,0.00
2019-01-23T05:37:39.159Z,0.00
2019-01-23T05:38:39.442Z,0.00
2019-01-23T05:39:39.174Z,0.00
2019-01-23T05:40:39.203Z,0.00
2019-01-23T05:41:39.286Z,0.00
2019-01-23T05:43:39.302Z,0.00
2019-01-23T05:44:39.327Z,0.00
2019-01-23T05:45:39.659Z,0.00
2019-01-23T05:46:39.388Z,0.00
2019-01-23T05:48:39.466Z,0.00
2019-01-23T05:49:39.560Z,0.00
2019-01-23T05:50:39.517Z,0.00
2019-01-23T05:51:39.538Z,0.00
2019-01-23T05:52:39.873Z,0.00
2019-01-23T05:53:39.653Z,0.00
2019-01-23T05:54:39.681Z,0.00
2019-01-23T05:55:39.721Z,0.00
2019-01-23T05:56:39.685Z,0.00
2019-01-23T05:57:39.725Z,0.00
2019-01-23T05:58:39.802Z,0.00
2019-01-23T05:59:40.077Z,0.00
2019-01-23T06:00:39.861Z,0.00
2019-01-23T06:01:39.905Z,0.00
2019-01-23T06:02:39.878Z,0.00
2019-01-23T06:03:39.956Z,0.00
2019-01-23T06:04:39.933Z,0.00
2019-01-23T06:05:40.014Z,0.00
2019-01-23T06:06:40.294Z,0.00
2019-01-23T06:07:40.020Z,0.00
2019-01-23T06:08:40.095Z,0.00
2019-01-23T06:09:40.085Z,0.00
2019-01-23T06:10:40.157Z,0.00
2019-01-23T06:11:40.197Z,0.00
2019-01-23T06:12:40.166Z,0.00
2019-01-23T06:13:40.557Z,0.00
2019-01-23T06:14:40.236Z,0.00
2019-01-23T06:15:40.314Z,0.00
2019-01-23T06:16:40.301Z,0.00
2019-01-23T06:17:40.333Z,0.00
2019-01-23T06:18:40.354Z,0.00
2019-01-23T06:19:40.388Z,0.00
2019-01-23T06:20:40.717Z,0.00
2019-01-23T06:21:40.494Z,0.00
2019-01-23T06:22:40.480Z,0.00
2019-01-23T06:23:40.556Z,0.00
2019-01-23T06:25:40.614Z,0.00
2019-01-23T06:27:40.677Z,0.00
2019-01-23T06:28:40.675Z,0.00
2019-01-23T06:31:40.765Z,0.00
2019-01-23T06:32:40.830Z,0.00
2019-01-23T06:33:40.868Z,0.00
2019-01-23T06:34:41.139Z,0.00
2019-01-23T06:36:40.900Z,0.00
2019-01-23T06:37:40.981Z,0.00
2019-01-23T06:38:41.009Z,0.00
2019-01-23T06:39:40.989Z,0.00
2019-01-23T06:40:41.017Z,0.00
2019-01-23T06:41:41.358Z,0.00
2019-01-23T06:42:41.124Z,0.00
2019-01-23T06:43:41.104Z,0.00
2019-01-23T06:44:41.136Z,0.00
2019-01-23T06:45:41.173Z,0.00
2019-01-23T06:47:41.277Z,0.00
2019-01-23T06:48:41.266Z,0.00
2019-01-23T06:49:41.350Z,0.00
2019-01-23T06:50:41.377Z,0.00
2019-01-23T06:51:41.353Z,0.00
2019-01-23T06:52:41.430Z,0.00
2019-01-23T06:53:41.466Z,0.00
2019-01-23T06:54:41.737Z,0.00
2019-01-23T06:55:41.469Z,0.00
2019-01-23T06:57:41.582Z,0.00
2019-01-23T06:58:41.609Z,0.00
2019-01-23T06:59:41.595Z,0.00
2019-01-23T07:00:41.921Z,0.00
2019-01-23T07:01:41.705Z,0.00
2019-01-23T07:02:41.679Z,0.00
2019-01-23T07:03:41.769Z,0.00
2019-01-23T07:04:41.748Z,0.00
2019-01-23T07:05:41.775Z,0.00
2019-01-23T07:06:42.154Z,0.00
2019-01-23T07:07:41.837Z,0.00
2019-01-23T07:08:41.862Z,0.00
2019-01-23T07:09:41.946Z,0.00
2019-01-23T07:10:41.932Z,0.00
2019-01-23T07:11:42.003Z,0.00
2019-01-23T07:12:42.314Z,0.00
2019-01-23T07:13:42.067Z,0.00
2019-01-23T07:14:42.044Z,0.00
2019-01-23T07:15:42.126Z,0.00
2019-01-23T07:16:42.151Z,0.00
2019-01-23T07:18:42.170Z,0.00
2019-01-23T07:19:42.499Z,0.00
2019-01-23T07:20:42.227Z,0.00
2019-01-23T07:22:42.333Z,0.00
2019-01-23T07:23:42.311Z,0.00
2019-01-23T07:24:42.347Z,0.00
2019-01-23T07:25:42.429Z,0.00
2019-01-23T07:26:42.711Z,0.00
2019-01-23T07:27:42.487Z,0.00
2019-01-23T07:28:49.002Z,0.00
2019-01-23T07:29:42.552Z,0.00
2019-01-23T07:30:42.572Z,0.00
2019-01-23T07:31:42.561Z,0.00
2019-01-23T07:32:42.640Z,0.00
2019-01-23T07:33:42.921Z,0.00
2019-01-23T07:34:42.644Z,0.00
2019-01-23T07:35:42.672Z,0.00
2019-01-23T07:36:42.705Z,0.00
2019-01-23T07:37:42.740Z,0.00
2019-01-23T07:38:42.823Z,0.00
2019-01-23T07:39:42.800Z,0.00
2019-01-23T07:40:42.828Z,0.00
2019-01-23T07:41:42.912Z,0.00
2019-01-23T07:42:42.884Z,0.00
2019-01-23T07:43:42.974Z,0.00
2019-01-23T07:44:42.949Z,5.63
2019-01-23T07:45:43.031Z,5.63
2019-01-23T07:46:43.310Z,5.63
2019-01-23T07:47:43.102Z,5.63
2019-01-23T07:48:43.070Z,5.63
2019-01-23T07:49:43.102Z,5.63
2019-01-23T07:50:43.128Z,5.63
2019-01-23T07:51:43.162Z,5.63
2019-01-23T07:52:43.187Z,5.63
2019-01-23T07:53:43.524Z,5.63
2019-01-23T07:54:43.298Z,5.63
2019-01-23T07:55:43.278Z,5.63
2019-01-23T07:56:43.309Z,5.63
2019-01-23T07:57:43.393Z,5.63
2019-01-23T07:58:43.426Z,5.63
2019-01-23T07:59:43.407Z,5.63
2019-01-23T08:00:43.733Z,5.63
2019-01-23T08:01:43.469Z,11.25
2019-01-23T08:02:43.491Z,11.25
2019-01-23T08:03:43.575Z,11.25
2019-01-23T08:04:43.553Z,11.25
2019-01-23T08:05:43.645Z,11.25
2019-01-23T08:06:43.919Z,11.25
2019-01-23T08:07:43.704Z,11.25
2019-01-23T08:08:43.677Z,11.25
2019-01-23T08:09:43.756Z,11.25
2019-01-23T08:10:43.787Z,16.88
2019-01-23T08:11:43.763Z,16.88
2019-01-23T08:12:44.095Z,16.88
2019-01-23T08:13:43.857Z,16.88
2019-01-23T08:14:43.911Z,16.88
2019-01-23T08:15:43.935Z,16.88
2019-01-23T08:16:43.982Z,16.88
2019-01-23T08:17:43.997Z,16.88
2019-01-23T08:18:43.982Z,16.88
2019-01-23T08:19:44.006Z,22.50
2019-01-23T08:20:44.093Z,22.50
2019-01-23T08:21:44.093Z,22.50
2019-01-23T08:22:44.101Z,22.50
2019-01-23T08:23:44.141Z,22.50
2019-01-23T08:24:44.170Z,22.50
2019-01-23T08:25:44.249Z,22.50
2019-01-23T08:26:44.305Z,22.50
2019-01-23T08:27:44.253Z,22.50
2019-01-23T08:28:44.278Z,22.50
2019-01-23T08:29:44.309Z,22.50
2019-01-23T08:30:44.389Z,22.50
2019-01-23T08:31:44.424Z,22.50
2019-01-23T08:32:44.400Z,22.50
2019-01-23T08:33:44.480Z,22.50
2019-01-23T08:34:44.461Z,22.50
2019-01-23T08:35:44.902Z,22.50
2019-01-23T08:36:44.524Z,28.13
2019-01-23T08:37:44.560Z,28.13
2019-01-23T08:38:44.581Z,28.13
2019-01-23T08:39:44.613Z,28.13
2019-01-23T08:40:44.708Z,28.13
2019-01-23T08:41:44.738Z,28.13
2019-01-23T08:42:44.705Z,28.13
2019-01-23T08:43:44.789Z,28.13
2019-01-23T08:44:44.815Z,28.13
2019-01-23T08:45:44.847Z,28.13
2019-01-23T08:46:45.269Z,28.13
2019-01-23T08:47:44.863Z,28.13
2019-01-23T08:48:44.898Z,28.13
2019-01-23T08:49:45.667Z,28.13
2019-01-23T08:50:45.005Z,28.13
2019-01-23T08:51:44.995Z,28.13
2019-01-23T08:52:45.014Z,28.13
2019-01-23T08:53:45.087Z,28.13
2019-01-23T08:54:45.374Z,28.13
2019-01-23T08:55:45.151Z,28.13
2019-01-23T08:56:45.493Z,28.13
2019-01-23T08:57:45.160Z,28.13
2019-01-23T08:58:45.189Z,28.13
2019-01-23T08:59:45.231Z,28.13
2019-01-23T09:00:46.009Z,33.75
2019-01-23T09:01:45.289Z,33.75
2019-01-23T09:02:45.361Z,33.75
2019-01-23T09:03:45.391Z,33.75
2019-01-23T09:04:45.371Z,33.75
2019-01-23T09:05:45.461Z,33.75
2019-01-23T09:06:45.490Z,33.75
2019-01-23T09:07:45.464Z,33.75
2019-01-23T09:08:45.495Z,33.75
2019-01-23T09:09:45.533Z,33.75
2019-01-23T09:10:45.608Z,33.75
2019-01-23T09:11:45.590Z,33.75
2019-01-23T09:12:45.617Z,33.75
2019-01-23T09:13:45.990Z,33.75
2019-01-23T09:14:45.727Z,33.75
2019-01-23T09:15:45.717Z,33.75
2019-01-23T09:16:45.793Z,33.75
2019-01-23T09:17:45.823Z,33.75
2019-01-23T09:18:45.853Z,39.38
2019-01-23T09:19:45.832Z,39.38
2019-01-23T09:20:46.168Z,39.38
2019-01-23T09:21:45.945Z,39.38
2019-01-23T09:22:45.971Z,39.38
2019-01-23T09:23:46.007Z,39.38
2019-01-23T09:24:45.987Z,39.38
2019-01-23T09:25:50.098Z,39.38
2019-01-23T09:26:46.347Z,39.38
2019-01-23T09:27:46.127Z,39.38
2019-01-23T09:29:46.184Z,39.38
2019-01-23T09:30:52.410Z,39.38
2019-01-23T09:31:46.200Z,45.00
2019-01-23T09:33:46.619Z,45.00
2019-01-23T09:34:46.286Z,45.00
2019-01-23T09:35:46.374Z,45.00
2019-01-23T09:36:46.350Z,45.00
2019-01-23T09:38:46.423Z,45.00
2019-01-23T09:39:46.748Z,45.00
2019-01-23T09:40:46.529Z,50.63
2019-01-23T09:41:46.559Z,50.63
2019-01-23T09:42:46.534Z,50.63
2019-01-23T09:43:46.625Z,50.63
2019-01-23T09:46:46.712Z,56.25
2019-01-23T09:47:46.693Z,56.25
2019-01-23T09:48:46.775Z,56.25
2019-01-23T09:49:46.756Z,56.25
2019-01-23T09:50:46.786Z,56.25
2019-01-23T09:51:46.818Z,56.25
2019-01-23T09:52:46.842Z,56.25
2019-01-23T09:53:47.174Z,56.25
2019-01-23T09:54:46.949Z,56.25
2019-01-23T09:55:46.931Z,61.88
2019-01-23T09:56:47.032Z,61.88
2019-01-23T09:57:47.059Z,61.88
2019-01-23T09:58:47.039Z,61.88
2019-01-23T09:59:47.360Z,61.88
2019-01-23T10:00:47.196Z,61.88
2019-01-23T10:01:47.187Z,67.50
2019-01-23T10:02:47.151Z,67.50
2019-01-23T10:04:47.216Z,67.50
2019-01-23T10:05:47.299Z,67.50
2019-01-23T10:06:47.273Z,67.50
2019-01-23T10:07:47.379Z,67.50
2019-01-23T10:08:47.338Z,73.13
2019-01-23T10:09:47.369Z,73.13
2019-01-23T10:10:47.396Z,73.13
2019-01-23T10:11:47.423Z,73.13
2019-01-23T10:12:47.758Z,73.13
2019-01-23T10:13:47.546Z,73.13
2019-01-23T10:14:47.574Z,73.13
2019-01-23T10:15:47.561Z,67.50
2019-01-23T10:16:47.594Z,67.50
2019-01-23T10:17:47.663Z,67.50
2019-01-23T10:18:47.641Z,67.50
2019-01-23T10:19:47.974Z,67.50
2019-01-23T10:20:47.753Z,67.50
2019-01-23T10:21:47.733Z,67.50
2019-01-23T10:22:47.808Z,67.50
2019-01-23T10:23:47.796Z,67.50
2019-01-23T10:24:47.841Z,67.50
2019-01-23T10:25:47.919Z,73.13
2019-01-23T10:26:47.996Z,73.13
2019-01-23T10:27:47.927Z,67.50
2019-01-23T10:28:47.970Z,67.50
2019-01-23T10:29:48.040Z,67.50
2019-01-23T10:30:48.089Z,67.50
2019-01-23T10:31:48.096Z,67.50
2019-01-23T10:32:48.379Z,73.13
2019-01-23T10:33:48.154Z,73.13
2019-01-23T10:34:48.193Z,73.13
2019-01-23T10:35:48.218Z,73.13
2019-01-23T10:36:48.246Z,73.13
2019-01-23T10:37:48.284Z,73.13
2019-01-23T10:38:48.311Z,73.13
2019-01-23T10:39:48.347Z,73.13
2019-01-23T10:40:48.324Z,73.13
2019-01-23T10:41:48.407Z,73.13
2019-01-23T10:42:48.394Z,73.13
2019-01-23T10:43:48.416Z,73.13
2019-01-23T10:44:48.500Z,73.13
2019-01-23T10:45:48.527Z,73.13
2019-01-23T10:46:48.605Z,73.13
2019-01-23T10:47:48.540Z,73.13
2019-01-23T10:48:48.626Z,73.13
2019-01-23T10:49:48.599Z,73.13
2019-01-23T10:50:48.638Z,73.13
2019-01-23T10:51:48.717Z,73.13
2019-01-23T10:52:48.696Z,73.13
2019-01-23T10:53:48.779Z,73.13
2019-01-23T10:54:48.760Z,73.13
2019-01-23T10:55:48.847Z,73.13
2019-01-23T10:56:49.117Z,73.13
2019-01-23T10:57:48.862Z,73.13
2019-01-23T10:58:48.984Z,73.13
2019-01-23T10:59:48.928Z,78.75
2019-01-23T11:00:48.951Z,78.75
2019-01-23T11:01:49.046Z,78.75
2019-01-23T11:02:49.053Z,78.75
2019-01-23T11:03:49.059Z,84.38
2019-01-23T11:04:49.069Z,84.38
2019-01-23T11:05:49.150Z,84.38
2019-01-23T11:06:49.126Z,84.38
2019-01-23T11:07:49.208Z,84.38
2019-01-23T11:08:49.200Z,84.38
2019-01-23T11:09:49.528Z,90.00
2019-01-23T11:10:49.259Z,95.63
2019-01-23T11:11:49.284Z,95.63
2019-01-23T11:12:49.316Z,95.63
2019-01-23T11:13:49.400Z,101.25
2019-01-23T11:14:49.429Z,101.25
2019-01-23T11:15:49.713Z,106.88
2019-01-23T11:16:49.500Z,106.88
2019-01-23T11:17:49.531Z,106.88
2019-01-23T11:18:49.513Z,106.88
2019-01-23T11:19:49.594Z,101.25
2019-01-23T11:20:49.575Z,95.63
2019-01-23T11:21:49.606Z,90.00
2019-01-23T11:22:49.684Z,90.00
2019-01-23T11:23:49.726Z,84.38
2019-01-23T11:24:49.701Z,84.38
2019-01-23T11:25:49.776Z,84.38
2019-01-23T11:26:49.754Z,84.38
2019-01-23T11:27:50.106Z,84.38
2019-01-23T11:28:49.874Z,84.38
2019-01-23T11:29:49.901Z,84.38
2019-01-23T11:30:49.877Z,84.38
2019-01-23T11:31:49.923Z,78.75
2019-01-23T11:32:49.942Z,78.75
2019-01-23T11:33:50.033Z,78.75
2019-01-23T11:34:50.063Z,78.75
2019-01-23T11:35:50.038Z,78.75
2019-01-23T11:36:50.071Z,78.75
2019-01-23T11:37:50.148Z,78.75
2019-01-23T11:38:50.134Z,78.75
2019-01-23T11:39:50.215Z,78.75
2019-01-23T11:40:50.536Z,78.75
2019-01-23T11:41:50.284Z,78.75
2019-01-23T11:42:50.257Z,78.75
2019-01-23T11:43:50.286Z,78.75
2019-01-23T11:44:50.369Z,78.75
2019-01-23T11:45:50.349Z,78.75
2019-01-23T11:46:50.439Z,78.75
2019-01-23T11:47:50.438Z,84.38
2019-01-23T11:48:50.453Z,84.38
2019-01-23T11:49:50.532Z,90.00
2019-01-23T11:50:50.561Z,90.00
2019-01-23T11:51:50.550Z,90.00
2019-01-23T11:52:50.583Z,90.00
2019-01-23T11:53:50.901Z,84.38
2019-01-23T11:54:50.633Z,84.38
2019-01-23T11:55:50.718Z,84.38
2019-01-23T11:56:50.701Z,84.38
2019-01-23T11:58:50.822Z,90.00
2019-01-23T12:00:50.880Z,90.00
2019-01-23T12:01:51.219Z,95.63
2019-01-23T12:02:50.994Z,95.63
2019-01-23T12:03:50.965Z,101.25
2019-01-23T12:04:50.965Z,106.88
2019-01-23T12:05:51.047Z,106.88
2019-01-23T12:06:51.058Z,106.88
2019-01-23T12:07:51.068Z,101.25
2019-01-23T12:08:51.448Z,101.25
2019-01-23T12:09:51.116Z,95.63
2019-01-23T12:10:51.213Z,106.88
2019-01-23T12:11:51.226Z,112.50
2019-01-23T12:12:51.267Z,112.50
2019-01-23T12:13:51.318Z,112.50
2019-01-23T12:14:51.280Z,112.50
2019-01-23T12:15:51.610Z,106.88
2019-01-23T12:16:51.393Z,112.50
2019-01-23T12:17:51.414Z,112.50
2019-01-23T12:18:51.401Z,112.50
2019-01-23T12:19:51.455Z,106.88
2019-01-23T12:22:51.574Z,106.88
2019-01-23T12:23:58.099Z,101.25
2019-01-23T12:24:51.586Z,95.63
2019-01-23T12:25:51.619Z,90.00
2019-01-23T12:26:51.700Z,84.38
2019-01-23T12:27:51.742Z,78.75
2019-01-23T12:28:51.761Z,73.13
2019-01-23T12:29:51.883Z,73.13
2019-01-23T12:30:52.076Z,73.13
2019-01-23T12:32:51.966Z,73.13
2019-01-23T12:33:51.866Z,73.13
2019-01-23T12:34:51.954Z,73.13
2019-01-23T12:35:51.931Z,73.13
2019-01-23T12:37:52.063Z,73.13
2019-01-23T12:38:52.229Z,73.13
2019-01-23T12:39:52.118Z,73.13
2019-01-23T12:41:52.196Z,78.75
2019-01-23T12:42:52.224Z,78.75
2019-01-23T12:43:55.390Z,78.75
2019-01-23T12:44:52.580Z,73.13
2019-01-23T12:45:52.304Z,73.13
2019-01-23T12:46:52.281Z,73.13
2019-01-23T12:47:52.323Z,73.13
2019-01-23T12:48:52.353Z,73.13
2019-01-23T12:49:52.426Z,73.13
2019-01-23T12:50:52.438Z,78.75
2019-01-23T12:51:52.811Z,78.75
2019-01-23T12:52:52.475Z,84.38
2019-01-23T12:53:52.550Z,78.75
2019-01-23T12:55:52.680Z,78.75
2019-01-23T12:56:52.650Z,78.75
2019-01-23T12:57:52.723Z,78.75
2019-01-23T12:58:53.025Z,78.75
2019-01-23T12:59:52.778Z,78.75
2019-01-23T13:00:52.801Z,78.75
2019-01-23T13:02:52.896Z,73.13
2019-01-23T13:03:52.919Z,73.13
2019-01-23T13:04:53.218Z,67.50
2019-01-23T13:05:52.945Z,61.88
2019-01-23T13:06:53.069Z,61.88
2019-01-23T13:07:52.959Z,67.50
2019-01-23T13:08:53.120Z,73.13
2019-01-23T13:10:53.110Z,67.50
2019-01-23T13:11:53.438Z,67.50
2019-01-23T13:12:53.168Z,67.50
2019-01-23T13:13:53.294Z,67.50
2019-01-23T13:14:53.183Z,67.50
2019-01-23T13:15:53.253Z,67.50
2019-01-23T13:16:53.286Z,73.13
2019-01-23T13:17:53.626Z,73.13
2019-01-23T13:18:53.306Z,78.75
2019-01-23T13:19:53.410Z,78.75
2019-01-23T13:20:53.422Z,78.75
2019-01-23T13:21:53.454Z,78.75
2019-01-23T13:22:53.485Z,78.75
2019-01-23T13:23:53.809Z,84.38
2019-01-23T13:24:53.490Z,78.75
2019-01-23T13:25:53.623Z,78.75
2019-01-23T13:26:53.564Z,78.75
2019-01-23T13:27:53.591Z,78.75
2019-01-23T13:28:53.681Z,84.38
2019-01-23T13:30:53.736Z,84.38
2019-01-23T13:31:53.907Z,84.38
2019-01-23T13:33:53.905Z,95.63
2019-01-23T13:34:53.921Z,101.25
2019-01-23T13:35:53.902Z,101.25
2019-01-23T13:36:53.882Z,95.63
2019-01-23T13:37:54.320Z,95.63
2019-01-23T13:38:53.933Z,95.63
2019-01-23T13:39:54.034Z,95.63
2019-01-23T13:40:54.114Z,95.63
2019-01-23T13:41:54.105Z,95.63
2019-01-23T13:42:54.062Z,90.00
2019-01-23T13:43:54.097Z,84.38
2019-01-23T13:44:55.504Z,84.38
2019-01-23T13:45:54.344Z,73.13
2019-01-23T13:46:54.203Z,73.13
2019-01-23T13:47:54.287Z,73.13
2019-01-23T13:48:54.314Z,67.50
2019-01-23T13:49:54.288Z,61.88
2019-01-23T13:50:54.384Z,56.25
2019-01-23T13:51:54.648Z,56.25
2019-01-23T13:52:54.393Z,50.63
2019-01-23T13:53:54.494Z,50.63
2019-01-23T13:54:54.456Z,50.63
2019-01-23T13:55:54.612Z,50.63
2019-01-23T13:57:07.312Z,50.63
2019-01-23T13:57:54.619Z,50.63
2019-01-23T13:58:54.977Z,45.00
2019-01-23T13:59:54.674Z,45.00
2019-01-23T14:02:54.770Z,56.25
2019-01-23T14:03:54.800Z,56.25
2019-01-23T14:04:54.830Z,50.63
2019-01-23T14:05:54.849Z,50.63
2019-01-23T14:06:54.838Z,45.00
2019-01-23T14:07:54.967Z,45.00
2019-01-23T14:08:54.909Z,45.00
2019-01-23T14:09:54.960Z,45.00